Time;durP1;ratioP1;P1;durP2;ratioP2;P2;SDS_P1;SDS_P2;PMS_P1;PMS_P2;Temp;Humidity;BMP_temperature;BMP_pressure;BME280_temperature;BME280_humidity;BME280_pressure;Samples;Min_cycle;Max_cycle;Signal;HPM_P1;HPM_P2
2022/10/05 00:00:18;;;;;;;7.63;6.10;;;11.40;99.90;;;;;;5024366;28;20206;-69
2022/10/05 00:02:45;;;;;;;6.60;5.93;;;11.70;99.90;;;;;;5012883;28;20268;-69
2022/10/05 00:05:32;;;;;;;6.10;5.50;;;11.60;99.90;;;;;;5022208;28;20640;-70
2022/10/05 00:08:13;;;;;;;7.00;6.30;;;11.60;99.90;;;;;;5028968;28;20178;-70
2022/10/05 00:10:42;;;;;;;7.65;6.10;;;11.50;99.90;;;;;;5031325;28;20178;-70
2022/10/05 00:13:18;;;;;;;7.07;6.35;;;11.50;99.90;;;;;;5017392;28;20648;-71
2022/10/05 00:15:43;;;;;;;6.75;6.05;;;11.70;99.90;;;;;;5031515;28;20235;-69
2022/10/05 00:18:14;;;;;;;7.60;5.77;;;11.70;99.90;;;;;;5040529;28;20717;-69
2022/10/05 00:20:41;;;;;;;7.47;6.47;;;11.60;99.90;;;;;;5033584;28;20219;-70
2022/10/05 00:23:12;;;;;;;6.13;5.53;;;11.40;99.90;;;;;;5034264;28;20185;-70
2022/10/05 00:25:38;;;;;;;7.80;6.97;;;11.60;99.90;;;;;;5022416;28;20319;-69
2022/10/05 00:28:16;;;;;;;7.73;7.03;;;11.30;99.90;;;;;;5031739;28;20264;-69
2022/10/05 00:30:42;;;;;;;6.45;5.85;;;11.40;99.90;;;;;;5032653;28;20185;-67
2022/10/05 00:33:07;;;;;;;9.70;6.80;;;11.70;99.90;;;;;;5030576;28;20199;-68
2022/10/05 00:35:35;;;;;;;6.90;6.30;;;11.60;99.90;;;;;;5032285;28;20217;-68
2022/10/05 00:38:00;;;;;;;6.85;6.15;;;11.60;99.90;;;;;;5013645;28;20197;-69
2022/10/05 00:40:35;;;;;;;8.53;6.10;;;11.80;99.90;;;;;;5027694;28;20201;-67
2022/10/05 00:43:10;;;;;;;6.97;6.28;;;11.70;99.90;;;;;;5031389;28;20184;-68
2022/10/05 00:45:43;;;;;;;6.65;6.00;;;11.80;99.90;;;;;;5018674;28;20214;-68
2022/10/05 00:48:49;;;;;;;6.90;6.30;;;11.80;99.90;;;;;;5023846;28;20280;-69
2022/10/05 00:51:26;;;;;;;6.20;5.60;;;11.80;99.90;;;;;;5000898;28;20623;-67
2022/10/05 00:54:19;;;;;;;6.47;5.93;;;11.70;99.90;;;;;;5020133;28;20189;-68
2022/10/05 00:57:08;;;;;;;8.25;6.40;;;11.40;99.90;;;;;;5034741;28;20208;-67
2022/10/05 00:59:43;;;;;;;6.75;6.05;;;11.90;99.90;;;;;;5024653;28;20552;-68
2022/10/05 01:02:11;;;;;;;8.60;5.93;;;11.70;99.90;;;;;;5021266;28;20195;-68
2022/10/05 01:04:52;;;;;;;6.20;5.38;;;11.70;99.90;;;;;;5028296;28;20583;-69
2022/10/05 01:07:55;;;;;;;6.05;5.18;;;11.50;99.90;;;;;;5026685;28;20185;-70
2022/10/05 01:10:36;;;;;;;6.35;5.70;;;11.60;99.90;;;;;;5027256;28;20223;-69
2022/10/05 01:13:20;;;;;;;6.50;5.90;;;11.50;99.90;;;;;;5024530;28;20225;-68
2022/10/05 01:16:21;;;;;;;7.22;6.53;;;11.30;99.90;;;;;;5026058;28;20200;-68
2022/10/05 01:19:30;;;;;;;6.72;5.97;;;11.40;99.90;;;;;;5014446;28;20220;-70
2022/10/05 01:22:24;;;;;;;7.43;6.63;;;11.40;99.90;;;;;;4991862;28;20208;-68
2022/10/05 01:25:19;;;;;;;7.10;6.32;;;11.30;99.90;;;;;;5022927;28;20722;-68
2022/10/05 01:28:01;;;;;;;7.03;6.32;;;11.20;99.90;;;;;;5034164;28;20222;-67
2022/10/05 01:30:35;;;;;;;7.10;6.40;;;10.90;99.90;;;;;;5031080;28;20489;-68
2022/10/05 01:33:24;;;;;;;10.77;7.47;;;11.00;99.90;;;;;;5019004;28;20267;-68
2022/10/05 01:35:56;;;;;;;6.80;6.10;;;10.90;99.90;;;;;;5029803;28;20271;-70
2022/10/05 01:38:42;;;;;;;7.60;6.88;;;11.30;99.90;;;;;;5029372;28;20680;-71
2022/10/05 01:41:38;;;;;;;6.97;6.28;;;11.20;99.90;;;;;;5036068;28;20205;-69
2022/10/05 01:44:20;;;;;;;13.65;6.82;;;11.40;99.90;;;;;;5020564;28;20562;-70
2022/10/05 01:47:05;;;;;;;10.65;7.00;;;11.10;99.90;;;;;;5029976;28;20219;-70
2022/10/05 01:49:41;;;;;;;8.70;6.40;;;11.20;99.90;;;;;;5026800;28;20188;-70
2022/10/05 01:52:12;;;;;;;11.25;8.40;;;11.30;99.90;;;;;;5031402;28;20318;-70
2022/10/05 01:55:01;;;;;;;11.02;8.25;;;11.40;99.90;;;;;;5030661;28;20210;-71
2022/10/05 01:57:42;;;;;;;8.32;7.50;;;11.40;99.90;;;;;;5029018;28;20271;-71
2022/10/05 02:00:10;;;;;;;8.68;7.60;;;11.20;99.90;;;;;;5025890;28;20680;-68
2022/10/05 02:02:58;;;;;;;8.85;7.07;;;11.40;99.90;;;;;;5022879;28;20237;-68
2022/10/05 02:05:28;;;;;;;7.18;6.55;;;11.20;99.90;;;;;;5034697;28;20202;-69
2022/10/05 02:08:07;;;;;;;8.98;8.18;;;11.10;99.90;;;;;;5030637;28;20184;-68
2022/10/05 02:10:41;;;;;;;7.22;6.63;;;11.10;99.90;;;;;;5034426;28;20184;-68
2022/10/05 02:13:20;;;;;;;8.15;6.82;;;11.30;99.90;;;;;;5027138;28;20184;-68
2022/10/05 02:15:57;;;;;;;8.77;7.15;;;11.10;99.90;;;;;;5020020;28;20211;-67
2022/10/05 02:18:49;;;;;;;10.85;8.65;;;11.20;99.90;;;;;;5015669;28;20232;-67
2022/10/05 02:21:16;;;;;;;7.90;7.10;;;10.90;99.90;;;;;;5025048;28;20213;-68
2022/10/05 02:23:43;;;;;;;8.63;7.68;;;10.70;99.90;;;;;;5031744;28;20204;-68
2022/10/05 02:26:10;;;;;;;7.40;6.65;;;10.70;99.90;;;;;;5023907;28;20209;-68
2022/10/05 02:28:45;;;;;;;9.23;6.95;;;10.80;99.90;;;;;;5030693;28;20197;-68
2022/10/05 02:31:14;;;;;;;8.05;7.35;;;10.60;99.90;;;;;;5029714;28;20262;-68
2022/10/05 02:33:40;;;;;;;7.82;7.13;;;10.70;99.90;;;;;;5017005;28;20285;-68
2022/10/05 02:36:30;;;;;;;8.97;7.13;;;10.40;99.90;;;;;;5035993;28;20316;-68
2022/10/05 02:39:33;;;;;;;9.45;7.60;;;10.60;99.90;;;;;;5025971;28;20192;-72
2022/10/05 02:42:07;;;;;;;7.85;6.97;;;10.50;99.90;;;;;;5034442;28;20643;-68
2022/10/05 02:44:52;;;;;;;7.60;6.90;;;10.60;99.90;;;;;;5041379;28;20643;-67
2022/10/05 02:47:41;;;;;;;8.15;7.45;;;10.90;99.90;;;;;;5035480;28;20594;-68
2022/10/05 02:50:10;;;;;;;7.53;6.82;;;10.80;99.90;;;;;;5026865;28;20189;-67
2022/10/05 02:53:11;;;;;;;9.38;7.30;;;10.80;99.90;;;;;;5037611;28;20183;-68
2022/10/05 02:55:56;;;;;;;8.48;7.25;;;10.70;99.90;;;;;;5026322;28;20955;-71
2022/10/05 02:58:26;;;;;;;9.02;6.43;;;11.10;99.90;;;;;;5019338;28;20214;-70
2022/10/05 03:01:27;;;;;;;9.80;7.20;;;11.20;99.90;;;;;;5029952;28;20244;-70
2022/10/05 03:04:29;;;;;;;9.18;7.07;;;10.90;99.90;;;;;;5028006;28;20188;-70
2022/10/05 03:07:33;;;;;;;7.93;7.22;;;11.10;99.90;;;;;;5024031;28;20209;-69
2022/10/05 03:10:10;;;;;;;8.85;6.55;;;11.10;99.90;;;;;;5011955;28;20416;-69
2022/10/05 03:12:51;;;;;;;6.93;6.32;;;11.00;99.90;;;;;;5024444;28;20190;-70
2022/10/05 03:15:38;;;;;;;7.78;6.97;;;11.00;99.90;;;;;;5033959;28;20680;-70
2022/10/05 03:18:09;;;;;;;8.10;7.30;;;11.00;99.90;;;;;;5028582;28;20196;-70
2022/10/05 03:21:04;;;;;;;7.68;6.97;;;10.90;99.90;;;;;;5014524;28;20204;-70
2022/10/05 03:23:43;;;;;;;8.77;7.85;;;11.00;99.90;;;;;;5031992;28;20268;-69
2022/10/05 03:26:36;;;;;;;8.40;7.10;;;10.70;99.90;;;;;;5030923;28;20325;-69
2022/10/05 03:29:24;;;;;;;8.65;7.10;;;11.10;99.90;;;;;;5026170;28;20794;-69
2022/10/05 03:32:02;;;;;;;8.23;6.60;;;11.10;99.90;;;;;;5028406;28;20572;-69
2022/10/05 03:34:42;;;;;;;7.95;7.15;;;10.90;99.90;;;;;;5032542;28;20233;-69
2022/10/05 03:37:49;;;;;;;7.88;7.10;;;10.90;99.90;;;;;;5037015;28;20214;-69
2022/10/05 03:40:17;;;;;;;8.75;7.95;;;10.90;99.90;;;;;;4987001;28;20223;-69
2022/10/05 03:42:49;;;;;;;9.23;8.32;;;10.70;99.90;;;;;;5028268;28;20294;-69
2022/10/05 03:45:20;;;;;;;9.32;7.35;;;10.50;99.90;;;;;;5031924;28;20251;-69
2022/10/05 03:47:59;;;;;;;8.95;7.32;;;10.50;99.90;;;;;;5032425;28;20187;-68
2022/10/05 03:50:42;;;;;;;7.97;7.18;;;10.70;99.90;;;;;;5030805;28;20766;-69
2022/10/05 03:53:38;;;;;;;8.73;7.72;;;10.70;99.90;;;;;;5028748;28;20184;-68
2022/10/05 03:56:22;;;;;;;8.52;7.72;;;10.80;99.90;;;;;;5028660;28;20212;-69
2022/10/05 03:58:57;;;;;;;8.75;7.80;;;10.60;99.90;;;;;;5030062;28;20694;-68
2022/10/05 04:01:29;;;;;;;8.57;7.72;;;10.90;99.90;;;;;;5030978;28;20211;-68
2022/10/05 04:04:00;;;;;;;10.02;9.02;;;10.70;99.90;;;;;;5028114;28;20187;-68
2022/10/05 04:06:34;;;;;;;8.38;7.57;;;10.70;99.90;;;;;;5027619;28;20217;-68
2022/10/05 04:09:11;;;;;;;8.85;8.00;;;10.80;99.90;;;;;;5030811;28;20178;-68
2022/10/05 04:11:49;;;;;;;8.68;7.88;;;10.70;99.90;;;;;;5026528;28;20187;-68
2022/10/05 04:14:37;;;;;;;11.30;8.15;;;10.80;99.90;;;;;;5032004;28;20218;-68
2022/10/05 04:17:11;;;;;;;8.13;7.30;;;10.80;99.90;;;;;;5029220;28;20209;-68
2022/10/05 04:19:46;;;;;;;8.05;7.25;;;10.70;99.90;;;;;;5025401;28;20296;-68
2022/10/05 04:22:21;;;;;;;8.13;7.22;;;10.70;99.90;;;;;;5024138;28;20676;-68
2022/10/05 04:25:05;;;;;;;8.85;7.72;;;10.90;99.90;;;;;;5029108;28;20195;-68
2022/10/05 04:27:38;;;;;;;8.73;7.82;;;10.90;99.90;;;;;;5024201;28;20258;-68
2022/10/05 04:30:12;;;;;;;11.85;8.50;;;10.60;99.90;;;;;;5030276;28;20192;-69
2022/10/05 04:32:53;;;;;;;12.07;9.95;;;10.80;99.90;;;;;;5030110;28;20242;-68
2022/10/05 04:35:34;;;;;;;9.45;8.50;;;10.40;99.90;;;;;;5029195;28;20198;-68
2022/10/05 04:38:24;;;;;;;10.48;9.13;;;10.50;99.90;;;;;;5030957;28;20218;-69
2022/10/05 04:41:11;;;;;;;15.43;9.65;;;10.70;99.90;;;;;;5025442;28;20266;-68
2022/10/05 04:44:04;;;;;;;10.00;8.93;;;10.50;99.90;;;;;;5031822;28;20724;-68
2022/10/05 04:47:02;;;;;;;10.68;9.23;;;10.70;99.90;;;;;;5025690;28;20213;-68
2022/10/05 04:49:34;;;;;;;12.00;9.57;;;10.60;99.90;;;;;;5033977;28;20262;-68
2022/10/05 04:52:02;;;;;;;13.68;10.68;;;10.70;99.90;;;;;;5029412;28;20214;-68
2022/10/05 04:55:21;;;;;;;12.10;10.60;;;10.70;99.90;;;;;;5029684;28;20294;-68
2022/10/05 04:58:18;;;;;;;10.80;9.70;;;10.60;99.90;;;;;;4987410;28;20208;-68
2022/10/05 05:01:14;;;;;;;11.35;9.98;;;10.60;99.90;;;;;;4988655;28;20270;-69
2022/10/05 05:03:40;;;;;;;11.88;10.48;;;10.50;99.90;;;;;;5021706;28;20193;-69
2022/10/05 05:06:26;;;;;;;10.50;9.40;;;10.70;99.90;;;;;;5016572;28;20212;-69
2022/10/05 05:09:12;;;;;;;10.93;9.73;;;10.90;99.90;;;;;;5027979;28;20227;-69
2022/10/05 05:12:06;;;;;;;11.85;9.52;;;10.70;99.90;;;;;;5020492;28;20722;-69
2022/10/05 05:14:47;;;;;;;11.82;10.63;;;10.70;99.90;;;;;;5023727;28;20187;-69
2022/10/05 05:17:31;;;;;;;10.70;9.70;;;10.80;99.90;;;;;;5039599;28;20246;-69
2022/10/05 05:20:06;;;;;;;13.93;10.95;;;10.90;99.90;;;;;;5024706;28;20195;-69
2022/10/05 05:22:50;;;;;;;12.10;10.65;;;11.00;99.90;;;;;;5027155;28;20232;-76
2022/10/05 05:25:16;;;;;;;11.90;9.80;;;10.90;99.90;;;;;;5028686;28;20206;-76
2022/10/05 05:28:00;;;;;;;17.10;10.30;;;10.80;99.90;;;;;;5025806;28;20192;-76
2022/10/05 05:30:47;;;;;;;10.45;9.45;;;11.10;99.90;;;;;;5018657;28;20561;-77
2022/10/05 05:33:18;;;;;;;11.50;9.05;;;11.00;99.90;;;;;;5044675;28;20543;-77
2022/10/05 05:36:15;;;;;;;11.15;9.82;;;11.20;99.90;;;;;;5036416;28;20291;-75
2022/10/05 05:38:57;;;;;;;11.90;10.15;;;11.10;99.90;;;;;;5028197;28;20194;-75
2022/10/05 05:41:36;;;;;;;11.65;10.20;;;10.90;99.90;;;;;;5024930;28;20227;-75
2022/10/05 05:44:25;;;;;;;10.98;9.77;;;11.00;99.90;;;;;;5024893;28;20197;-75
2022/10/05 05:47:18;;;;;;;10.25;9.30;;;11.10;99.90;;;;;;5013117;28;20199;-77
2022/10/05 05:50:09;;;;;;;10.50;9.50;;;11.00;99.90;;;;;;5035198;28;20191;-67
2022/10/05 05:52:34;;;;;;;13.43;10.48;;;11.10;99.90;;;;;;5024102;28;20868;-67
2022/10/05 05:55:10;;;;;;;11.53;10.00;;;11.00;99.90;;;;;;5028762;28;20527;-68
2022/10/05 05:57:57;;;;;;;12.00;9.93;;;10.90;99.90;;;;;;5026638;28;20209;-67
2022/10/05 06:00:29;;;;;;;9.95;8.95;;;10.90;99.90;;;;;;5015559;28;20212;-67
2022/10/05 06:03:17;;;;;;;10.40;8.80;;;11.60;99.90;;;;;;5027683;28;20191;-67
2022/10/05 06:05:57;;;;;;;11.27;10.18;;;11.10;99.90;;;;;;5027247;28;20228;-68
2022/10/05 06:08:35;;;;;;;11.05;9.30;;;11.20;99.90;;;;;;5013739;28;20283;-67
2022/10/05 06:11:07;;;;;;;10.45;9.20;;;11.00;99.90;;;;;;5027449;28;20298;-68
2022/10/05 06:13:37;;;;;;;10.20;9.18;;;10.70;99.90;;;;;;5029267;28;20197;-67
2022/10/05 06:16:30;;;;;;;13.85;9.00;;;10.70;99.90;;;;;;5036373;28;20225;-67
2022/10/05 06:19:04;;;;;;;10.77;9.50;;;10.70;99.90;;;;;;5014075;28;20191;-68
2022/10/05 06:21:40;;;;;;;10.35;9.35;;;10.90;99.90;;;;;;5020644;28;20329;-68
2022/10/05 06:24:26;;;;;;;12.35;11.10;;;10.80;99.90;;;;;;5026840;28;20252;-68
2022/10/05 06:27:25;;;;;;;9.82;8.82;;;11.10;99.90;;;;;;5011794;28;20235;-67
2022/10/05 06:30:02;;;;;;;12.43;9.45;;;11.20;99.90;;;;;;5020285;28;20183;-68
2022/10/05 06:32:39;;;;;;;9.48;8.52;;;10.80;99.90;;;;;;5033409;28;20602;-68
2022/10/05 06:35:16;;;;;;;9.52;8.63;;;11.00;99.90;;;;;;5029201;28;20313;-68
2022/10/05 06:38:00;;;;;;;11.15;8.80;;;11.00;99.90;;;;;;5017306;28;20184;-68
2022/10/05 06:40:35;;;;;;;10.38;8.70;;;11.20;99.90;;;;;;5027905;28;20235;-68
2022/10/05 06:43:20;;;;;;;10.18;9.18;;;11.30;99.90;;;;;;5021494;28;20216;-68
2022/10/05 06:45:49;;;;;;;11.90;9.43;;;11.20;99.90;;;;;;5029290;28;20734;-68
2022/10/05 06:48:53;;;;;;;16.23;9.25;;;11.30;99.90;;;;;;5032482;28;20184;-68
2022/10/05 06:51:46;;;;;;;10.55;9.20;;;11.30;99.90;;;;;;5014865;28;20205;-68
2022/10/05 06:54:46;;;;;;;10.55;9.35;;;11.70;99.90;;;;;;5033218;28;20681;-67
2022/10/05 06:57:20;;;;;;;9.60;8.48;;;11.80;99.90;;;;;;5034404;28;20216;-68
2022/10/05 07:00:03;;;;;;;11.15;8.75;;;11.90;99.90;;;;;;5011866;28;20225;-68
2022/10/05 07:02:44;;;;;;;10.15;8.55;;;11.90;99.90;;;;;;5026446;28;20205;-68
2022/10/05 07:05:48;;;;;;;10.40;9.30;;;12.00;99.90;;;;;;5031210;28;20202;-68
2022/10/05 07:08:42;;;;;;;21.63;9.85;;;12.40;99.90;;;;;;5020529;28;20212;-66
2022/10/05 07:11:18;;;;;;;12.73;8.82;;;12.40;99.90;;;;;;5029442;28;20179;-67
2022/10/05 07:14:02;;;;;;;21.63;11.55;;;12.50;99.90;;;;;;5029703;28;20181;-67
2022/10/05 07:16:44;;;;;;;12.85;10.80;;;12.50;99.90;;;;;;5027692;28;20542;-67
2022/10/05 07:19:21;;;;;;;10.55;9.45;;;12.80;99.90;;;;;;5033246;28;20186;-67
2022/10/05 07:22:19;;;;;;;12.52;8.52;;;12.60;99.90;;;;;;5025974;28;20607;-67
2022/10/05 07:25:09;;;;;;;15.40;12.25;;;12.70;99.90;;;;;;5027150;28;20194;-67
2022/10/05 07:27:51;;;;;;;11.32;10.20;;;13.10;99.90;;;;;;5024802;28;20189;-68
2022/10/05 07:30:17;;;;;;;8.95;8.05;;;13.00;99.90;;;;;;5051309;28;20657;-67
2022/10/05 07:32:58;;;;;;;10.35;8.75;;;13.30;99.90;;;;;;5053000;28;20597;-67
2022/10/05 07:38:25;;;;;;;9.98;8.45;;;13.60;99.90;;;;;;5033753;28;20221;-68
2022/10/05 07:41:03;;;;;;;9.73;8.73;;;13.80;99.90;;;;;;5039631;28;20213;-68
2022/10/05 07:43:44;;;;;;;9.65;8.75;;;14.10;99.90;;;;;;5047546;28;20189;-68
2022/10/05 07:46:13;;;;;;;10.38;8.65;;;14.10;99.90;;;;;;5052457;28;20569;-68
2022/10/05 07:48:48;;;;;;;10.80;9.23;;;14.30;99.90;;;;;;5052610;28;20213;-68
2022/10/05 07:51:35;;;;;;;9.55;8.63;;;14.30;99.90;;;;;;5030551;28;20594;-68
2022/10/05 07:54:19;;;;;;;10.20;8.95;;;14.10;99.90;;;;;;5049856;28;20188;-68
2022/10/05 07:56:48;;;;;;;10.55;9.45;;;14.30;99.90;;;;;;5036014;28;20209;-68
2022/10/05 07:59:16;;;;;;;10.57;9.27;;;13.80;99.90;;;;;;5043161;28;20189;-68
2022/10/05 08:01:47;;;;;;;9.57;8.57;;;13.80;99.90;;;;;;5052371;28;20213;-68
2022/10/05 08:04:25;;;;;;;10.63;9.63;;;14.10;99.90;;;;;;5049722;28;20272;-69
2022/10/05 08:06:56;;;;;;;15.90;11.98;;;14.10;99.90;;;;;;5021574;28;20209;-68
2022/10/05 08:09:31;;;;;;;10.73;9.63;;;14.30;99.90;;;;;;5032071;28;20183;-68
2022/10/05 08:12:18;;;;;;;11.15;10.18;;;14.00;99.90;;;;;;5026077;28;20210;-68
2022/10/05 08:15:15;;;;;;;10.32;9.30;;;14.20;99.90;;;;;;5025514;28;20182;-68
2022/10/05 08:17:52;;;;;;;11.82;10.63;;;14.10;99.90;;;;;;5032027;28;20194;-69
2022/10/05 08:20:46;;;;;;;11.05;9.23;;;14.40;99.90;;;;;;5025340;28;20217;-69
2022/10/05 08:23:18;;;;;;;9.27;8.38;;;14.50;99.90;;;;;;5021989;28;20528;-69
2022/10/05 08:25:56;;;;;;;10.13;9.05;;;14.60;99.90;;;;;;5031285;28;20265;-69
2022/10/05 08:28:35;;;;;;;9.32;8.43;;;14.60;99.90;;;;;;5024404;28;20327;-68
2022/10/05 08:31:25;;;;;;;9.85;8.93;;;14.80;99.90;;;;;;5031350;28;20556;-68
2022/10/05 08:34:29;;;;;;;8.95;8.05;;;15.00;99.90;;;;;;5029775;28;20247;-68
2022/10/05 08:37:07;;;;;;;9.38;8.20;;;15.10;99.90;;;;;;5009659;28;20264;-68
2022/10/05 08:39:44;;;;;;;11.02;8.85;;;14.90;99.90;;;;;;5031618;28;20564;-68
2022/10/05 08:42:40;;;;;;;8.98;8.07;;;15.00;99.90;;;;;;5027483;28;20210;-68
2022/10/05 08:45:06;;;;;;;10.93;7.97;;;15.20;99.90;;;;;;5035346;28;20228;-68
2022/10/05 08:47:50;;;;;;;8.50;7.73;;;15.20;99.90;;;;;;5036718;28;20666;-68
2022/10/05 08:50:19;;;;;;;10.40;8.60;;;15.20;99.90;;;;;;5050627;28;20191;-68
2022/10/05 08:53:11;;;;;;;11.25;7.57;;;15.10;99.90;;;;;;5048969;28;20189;-68
2022/10/05 08:56:09;;;;;;;8.68;7.78;;;15.40;99.90;;;;;;5034085;28;20205;-68
2022/10/05 08:58:53;;;;;;;8.85;7.30;;;15.60;99.90;;;;;;5019226;28;20224;-69
2022/10/05 09:01:30;;;;;;;13.10;8.30;;;15.80;99.90;;;;;;5043746;28;20706;-69
2022/10/05 09:04:20;;;;;;;10.95;8.48;;;15.80;99.90;;;;;;5041533;28;20233;-71
2022/10/05 09:07:10;;;;;;;10.55;8.57;;;16.10;99.90;;;;;;5035576;28;20205;-71
2022/10/05 09:10:01;;;;;;;8.98;8.00;;;16.30;99.90;;;;;;5033135;28;20647;-69
2022/10/05 09:12:39;;;;;;;11.43;8.30;;;16.00;99.90;;;;;;5027506;28;20285;-70
2022/10/05 09:15:41;;;;;;;10.73;8.80;;;16.10;99.90;;;;;;5023166;28;20197;-71
2022/10/05 09:18:18;;;;;;;9.20;8.30;;;16.30;99.90;;;;;;5016696;28;20198;-69
2022/10/05 09:20:54;;;;;;;10.07;8.88;;;16.50;99.90;;;;;;5024817;28;20226;-70
2022/10/05 09:23:43;;;;;;;10.25;8.82;;;16.90;99.90;;;;;;5027138;28;20613;-70
2022/10/05 09:26:27;;;;;;;9.70;8.90;;;17.10;99.90;;;;;;5012723;28;20210;-69
2022/10/05 09:29:22;;;;;;;10.15;8.93;;;18.00;99.90;;;;;;5026228;28;20198;-67
2022/10/05 09:32:16;;;;;;;8.90;8.00;;;18.70;99.90;;;;;;5023172;28;20671;-67
2022/10/05 09:35:03;;;;;;;10.15;8.50;;;19.20;99.30;;;;;;5027833;28;20190;-68
2022/10/05 09:37:47;;;;;;;8.88;8.07;;;19.50;98.20;;;;;;5027863;28;20182;-69
2022/10/05 09:40:13;;;;;;;10.38;9.10;;;20.40;97.00;;;;;;5036482;28;20239;-69
2022/10/05 09:43:09;;;;;;;9.00;8.00;;;21.70;94.60;;;;;;5030612;28;20590;-70
2022/10/05 09:45:47;;;;;;;7.87;7.10;;;23.70;91.60;;;;;;5023044;28;20680;-69
2022/10/05 09:48:40;;;;;;;7.03;6.43;;;25.00;87.10;;;;;;5024904;28;20443;-70
2022/10/05 09:51:18;;;;;;;11.60;7.97;;;25.20;82.70;;;;;;5029840;28;20425;-69
2022/10/05 09:53:51;;;;;;;8.00;7.30;;;25.10;82.10;;;;;;5043564;28;20440;-70
2022/10/05 09:56:33;;;;;;;8.77;7.40;;;24.10;82.50;;;;;;5031740;28;20610;-69
2022/10/05 09:59:29;;;;;;;10.33;9.33;;;24.40;83.60;;;;;;5030315;28;20441;-68
2022/10/05 10:02:19;;;;;;;8.87;8.07;;;23.90;85.00;;;;;;5029718;28;20460;-69
2022/10/05 10:05:05;;;;;;;9.80;8.73;;;22.60;86.50;;;;;;5044135;28;20771;-68
2022/10/05 10:08:12;;;;;;;8.30;7.60;;;22.30;90.10;;;;;;5039206;28;20793;-68
2022/10/05 10:10:59;;;;;;;10.37;8.70;;;21.90;91.20;;;;;;5012514;28;20442;-70
2022/10/05 10:14:05;;;;;;;10.27;7.07;;;21.60;91.70;;;;;;5027787;28;20428;-69
2022/10/05 10:16:52;;;;;;;10.18;9.27;;;21.20;92.70;;;;;;5009610;28;20464;-69
2022/10/05 10:19:53;;;;;;;9.95;8.65;;;21.00;93.50;;;;;;5028260;28;20216;-69
2022/10/05 10:22:42;;;;;;;14.18;9.07;;;20.80;94.20;;;;;;5012088;28;20232;-69
2022/10/05 10:25:18;;;;;;;9.95;6.90;;;20.60;94.90;;;;;;5029981;28;20214;-68
2022/10/05 10:27:46;;;;;;;9.13;8.23;;;20.50;95.10;;;;;;5027302;28;20183;-68
2022/10/05 10:30:43;;;;;;;6.88;5.85;;;20.60;95.70;;;;;;5030505;28;20264;-68
2022/10/05 10:33:46;;;;;;;8.63;7.82;;;20.60;95.90;;;;;;5029650;28;20547;-69
2022/10/05 10:36:19;;;;;;;9.68;8.68;;;20.60;96.30;;;;;;5018951;28;20200;-69
2022/10/05 10:39:07;;;;;;;5.72;3.95;;;20.80;96.20;;;;;;5023416;28;20726;-69
2022/10/05 10:42:01;;;;;;;5.22;4.63;;;21.00;96.00;;;;;;5012504;28;20233;-70
2022/10/05 10:44:48;;;;;;;5.70;4.40;;;21.40;96.40;;;;;;5029796;28;20218;-69
2022/10/05 10:47:35;;;;;;;2.13;2.00;;;21.60;95.50;;;;;;5036240;28;20208;-68
2022/10/05 10:50:38;;;;;;;2.20;2.07;;;21.90;93.60;;;;;;5040605;28;20468;-68
2022/10/05 10:53:25;;;;;;;2.87;1.90;;;22.60;92.20;;;;;;5049803;28;20473;-68
2022/10/05 10:56:21;;;;;;;2.00;1.80;;;24.10;90.10;;;;;;5035210;28;20478;-69
2022/10/05 10:59:27;;;;;;;1.90;1.80;;;25.20;85.60;;;;;;5019447;28;20428;-69
2022/10/05 11:02:31;;;;;;;2.40;2.20;;;25.10;84.00;;;;;;5036977;28;20474;-69
2022/10/05 11:05:22;;;;;;;3.63;3.20;;;24.90;85.60;;;;;;5027761;28;20527;-69
2022/10/05 11:08:15;;;;;;;4.27;3.87;;;24.70;87.00;;;;;;5026981;28;20975;-69
2022/10/05 11:11:07;;;;;;;3.47;3.17;;;24.60;87.40;;;;;;5028326;28;21022;-71
2022/10/05 11:14:09;;;;;;;2.23;2.13;;;24.50;87.80;;;;;;5019894;28;20474;-70
2022/10/05 11:17:05;;;;;;;2.03;1.93;;;24.50;86.80;;;;;;5017563;28;20466;-68
2022/10/05 11:19:43;;;;;;;2.57;2.30;;;24.40;86.40;;;;;;5029149;28;20782;-69
2022/10/05 11:22:34;;;;;;;2.87;2.67;;;24.40;87.50;;;;;;5027700;28;20479;-68
2022/10/05 11:25:09;;;;;;;2.50;2.30;;;24.50;86.50;;;;;;5029175;28;20511;-69
2022/10/05 11:27:47;;;;;;;2.77;2.40;;;24.10;86.80;;;;;;5019911;28;20445;-69
2022/10/05 11:30:12;;;;;;;3.37;2.40;;;24.30;86.10;;;;;;5030586;28;20425;-69
2022/10/05 11:32:53;;;;;;;2.43;2.30;;;24.20;87.30;;;;;;5029446;28;20877;-68
2022/10/05 11:35:33;;;;;;;3.67;2.30;;;23.90;89.00;;;;;;5016781;28;21217;-67
2022/10/05 11:38:04;;;;;;;2.67;2.47;;;24.00;88.70;;;;;;5024969;28;21003;-70
2022/10/05 11:40:46;;;;;;;2.00;1.90;;;24.00;88.50;;;;;;5029763;28;20464;-68
2022/10/05 11:43:22;;;;;;;2.30;2.00;;;24.10;89.00;;;;;;5032690;28;20948;-69
2022/10/05 11:46:14;;;;;;;2.90;2.53;;;24.10;88.80;;;;;;5032613;28;20437;-68
2022/10/05 11:49:05;;;;;;;2.80;2.30;;;24.00;88.70;;;;;;5025383;28;20426;-70
2022/10/05 11:51:43;;;;;;;3.30;3.00;;;23.90;90.10;;;;;;5030526;28;20792;-68
2022/10/05 11:54:08;;;;;;;3.30;3.00;;;23.80;90.60;;;;;;5032382;28;20425;-69
2022/10/05 11:56:57;;;;;;;2.67;2.50;;;23.90;90.60;;;;;;5033240;28;20639;-70
2022/10/05 11:59:39;;;;;;;2.90;2.70;;;24.00;90.20;;;;;;5027461;28;20210;-69
2022/10/05 12:02:36;;;;;;;4.17;3.77;;;24.10;90.20;;;;;;5031229;28;20470;-69
2022/10/05 12:05:11;;;;;;;3.00;2.80;;;24.20;90.30;;;;;;5019929;28;20545;-69
2022/10/05 12:08:06;;;;;;;3.67;3.13;;;24.30;90.40;;;;;;5031478;28;20966;-69
2022/10/05 12:11:12;;;;;;;6.53;2.40;;;24.20;90.40;;;;;;5031863;28;20878;-70
2022/10/05 12:13:59;;;;;;;2.77;2.50;;;24.40;90.50;;;;;;5032294;28;20438;-69
2022/10/05 12:16:33;;;;;;;2.80;2.60;;;24.50;90.00;;;;;;5025283;28;20852;-69
2022/10/05 12:19:22;;;;;;;3.50;3.27;;;24.50;89.90;;;;;;5043853;28;20482;-69
2022/10/05 12:22:25;;;;;;;2.60;2.40;;;24.60;90.10;;;;;;5031328;28;20474;-68
2022/10/05 12:25:28;;;;;;;3.33;2.20;;;24.60;89.40;;;;;;5040592;28;20931;-69
2022/10/05 12:28:03;;;;;;;2.80;2.60;;;24.70;89.40;;;;;;5007776;28;20853;-69
2022/10/05 12:30:50;;;;;;;2.67;2.47;;;24.70;88.80;;;;;;5035892;28;20492;-68
2022/10/05 12:33:33;;;;;;;2.60;2.40;;;24.80;88.90;;;;;;5031553;28;20426;-68
2022/10/05 12:36:13;;;;;;;2.70;2.40;;;24.90;88.30;;;;;;5033727;28;20470;-71
2022/10/05 12:39:04;;;;;;;5.67;4.00;;;24.90;89.00;;;;;;5031379;28;20467;-69
2022/10/05 12:41:48;;;;;;;2.53;2.33;;;24.90;89.60;;;;;;5022271;28;20812;-69
2022/10/05 12:44:19;;;;;;;2.70;2.50;;;24.90;89.10;;;;;;5019521;28;20496;-69
2022/10/05 12:47:16;;;;;;;2.10;2.00;;;24.80;90.20;;;;;;5030195;28;20454;-69
2022/10/05 12:50:13;;;;;;;1.90;1.80;;;24.90;87.90;;;;;;5023632;28;20446;-70
2022/10/05 12:53:03;;;;;;;2.23;2.10;;;25.00;87.20;;;;;;5039084;28;20428;-69
2022/10/05 12:56:06;;;;;;;2.77;1.90;;;25.10;83.50;;;;;;5036654;28;20540;-68
2022/10/05 12:58:55;;;;;;;1.60;1.50;;;25.10;82.20;;;;;;5018817;28;20430;-69
2022/10/05 13:01:25;;;;;;;1.50;1.40;;;25.00;82.20;;;;;;5029941;28;20554;-69
2022/10/05 13:04:03;;;;;;;1.53;1.43;;;25.00;78.00;;;;;;5032830;28;21326;-68
2022/10/05 13:06:38;;;;;;;1.97;1.73;;;25.00;76.30;;;;;;5030959;28;20461;-69
2022/10/05 13:09:17;;;;;;;1.40;1.30;;;25.00;75.40;;;;;;5043818;28;20574;-68
2022/10/05 13:11:48;;;;;;;1.87;1.70;;;25.00;74.70;;;;;;5015253;28;20806;-68
2022/10/05 13:14:58;;;;;;;1.57;1.10;;;25.00;74.40;;;;;;5027556;28;20892;-67
2022/10/05 13:17:49;;;;;;;2.23;1.40;;;25.10;73.00;;;;;;5045774;28;20438;-68
2022/10/05 13:20:28;;;;;;;1.67;1.57;;;25.10;74.00;;;;;;5045367;28;20904;-68
2022/10/05 13:23:21;;;;;;;2.17;1.20;;;25.10;75.10;;;;;;5018892;28;20464;-68
2022/10/05 13:26:10;;;;;;;1.60;1.50;;;25.10;74.30;;;;;;5028611;28;20955;-68
2022/10/05 13:28:53;;;;;;;1.47;1.37;;;25.20;73.90;;;;;;5025364;28;20430;-68
2022/10/05 13:31:25;;;;;;;1.60;1.30;;;25.10;73.10;;;;;;5016514;28;20506;-68
2022/10/05 13:34:02;;;;;;;2.30;1.33;;;25.10;71.70;;;;;;5028838;28;20438;-68
2022/10/05 13:36:45;;;;;;;1.40;1.20;;;25.00;71.80;;;;;;5019820;28;20969;-68
2022/10/05 13:39:23;;;;;;;1.40;1.27;;;25.00;72.20;;;;;;5018996;28;20433;-68
2022/10/05 13:42:04;;;;;;;2.17;1.47;;;25.10;71.40;;;;;;5024662;28;20548;-69
2022/10/05 13:44:46;;;;;;;1.50;1.40;;;25.00;72.30;;;;;;5030177;28;20502;-68
2022/10/05 13:47:15;;;;;;;1.70;1.47;;;25.10;70.60;;;;;;5029508;28;20454;-68
2022/10/05 13:49:57;;;;;;;1.40;1.30;;;25.00;71.00;;;;;;5024337;28;20530;-68
2022/10/05 13:52:29;;;;;;;1.70;1.40;;;25.00;69.80;;;;;;5030313;28;20438;-68
2022/10/05 13:55:03;;;;;;;2.30;1.83;;;25.00;71.40;;;;;;5030043;28;20427;-68
2022/10/05 13:57:43;;;;;;;1.50;1.40;;;25.00;72.00;;;;;;5020045;28;20556;-69
2022/10/05 14:00:29;;;;;;;5.63;3.50;;;25.00;73.10;;;;;;5029772;28;20494;-68
2022/10/05 14:02:58;;;;;;;1.53;1.10;;;25.00;72.30;;;;;;5029650;28;20429;-67
2022/10/05 14:05:26;;;;;;;2.00;1.50;;;25.10;71.00;;;;;;5021409;28;20508;-68